createdAt,value
2023-04-23T00:02:03.147Z,70.29
2023-04-23T00:04:33.965Z,70.59
2023-04-23T00:07:01.169Z,71.23
2023-04-23T00:09:32.882Z,71.85
2023-04-23T00:12:00.938Z,70.97
2023-04-23T00:14:28.536Z,69.31
2023-04-23T00:16:55.478Z,68.44
2023-04-23T00:19:22.144Z,67.72
2023-04-23T00:21:49.334Z,68.53
2023-04-23T00:24:15.898Z,69.76
2023-04-23T00:26:42.632Z,68.09
2023-04-23T00:29:09.324Z,66.48
2023-04-23T00:31:36.055Z,65.45
2023-04-23T00:34:03.226Z,65.29
2023-04-23T00:36:29.981Z,65.36
2023-04-23T00:38:56.679Z,66.27
2023-04-23T00:41:23.715Z,64.72
2023-04-23T00:43:52.889Z,64.94
2023-04-23T00:46:19.509Z,65.11
2023-04-23T00:48:47.727Z,64.19
2023-04-23T00:51:16.749Z,65.29
2023-04-23T00:53:43.511Z,63.60
2023-04-23T00:56:10.795Z,62.38
2023-04-23T00:58:38.070Z,63.93
2023-04-23T01:01:05.138Z,65.95
2023-04-23T01:03:32.869Z,65.28
2023-04-23T01:05:59.933Z,66.83
2023-04-23T01:08:26.666Z,66.83
2023-04-23T01:10:53.691Z,65.84
2023-04-23T01:13:20.358Z,65.47
2023-04-23T01:15:46.896Z,65.08
2023-04-23T01:18:15.750Z,64.69
2023-04-23T01:20:43.733Z,65.39
2023-04-23T01:23:10.540Z,65.49
2023-04-23T01:25:37.680Z,65.04
2023-04-23T01:28:06.646Z,64.81
2023-04-23T01:30:33.830Z,64.15
2023-04-23T01:33:01.154Z,63.87
2023-04-23T01:35:28.761Z,63.03
2023-04-23T01:37:56.761Z,62.80
2023-04-23T01:40:23.281Z,63.07
2023-04-23T01:42:50.226Z,61.57
2023-04-23T01:45:19.927Z,61.41
2023-04-23T01:47:47.661Z,63.48
2023-04-23T01:50:14.617Z,61.81
2023-04-23T01:52:42.054Z,60.94
2023-04-23T01:55:09.435Z,60.36
2023-04-23T01:57:36.523Z,60.19
2023-04-23T02:00:11.676Z,59.85
2023-04-23T02:02:39.833Z,59.78
2023-04-23T02:05:20.772Z,59.68
2023-04-23T02:07:51.785Z,59.66
2023-04-23T02:10:18.787Z,59.04
2023-04-23T02:12:45.604Z,58.79
2023-04-23T02:15:12.418Z,58.66
2023-04-23T02:17:39.950Z,59.47
2023-04-23T02:20:09.731Z,60.95
2023-04-23T02:22:39.129Z,60.17
2023-04-23T02:25:07.292Z,59.86
2023-04-23T02:27:34.491Z,59.48
2023-04-23T02:30:01.162Z,59.28
2023-04-23T02:32:28.215Z,59.71
2023-04-23T02:34:54.867Z,59.59
2023-04-23T02:37:21.529Z,59.34
2023-04-23T02:39:48.066Z,59.31
2023-04-23T02:42:14.837Z,59.39
2023-04-23T02:44:41.746Z,59.82
2023-04-23T02:47:08.459Z,60.19
2023-04-23T02:49:34.960Z,60.43
2023-04-23T02:52:02.019Z,59.85
2023-04-23T02:54:28.583Z,59.77
2023-04-23T02:56:55.119Z,59.57
2023-04-23T02:59:21.592Z,60.68
2023-04-23T03:01:48.222Z,60.92
2023-04-23T03:04:14.846Z,60.58
2023-04-23T03:06:41.935Z,60.70
2023-04-23T03:09:08.878Z,61.60
2023-04-23T03:11:35.457Z,61.29
2023-04-23T03:14:01.924Z,61.17
2023-04-23T03:16:29.450Z,62.00
2023-04-23T03:18:56.365Z,61.74
2023-04-23T03:21:22.982Z,61.31
2023-04-23T03:23:49.448Z,61.44
2023-04-23T03:26:16.019Z,61.68
2023-04-23T03:28:42.496Z,61.64
2023-04-23T03:31:09.359Z,61.38
2023-04-23T03:33:35.943Z,61.52
2023-04-23T03:36:02.659Z,61.17
2023-04-23T03:38:29.198Z,61.56
2023-04-23T03:40:56.051Z,61.87
2023-04-23T03:43:22.655Z,60.91
2023-04-23T03:45:49.124Z,60.65
2023-04-23T03:48:16.104Z,60.72
2023-04-23T03:50:42.635Z,61.12
2023-04-23T03:53:10.125Z,60.69
2023-04-23T03:55:36.623Z,60.43
2023-04-23T03:58:03.481Z,61.16
2023-04-23T04:00:30.146Z,61.30
2023-04-23T04:02:56.748Z,60.90
2023-04-23T04:05:23.524Z,60.51
2023-04-23T04:07:50.342Z,60.66
2023-04-23T04:10:16.895Z,60.88
2023-04-23T04:12:44.961Z,60.29
2023-04-23T04:15:16.081Z,60.23
2023-04-23T04:17:42.701Z,60.65
2023-04-23T04:20:11.155Z,60.61
2023-04-23T04:22:37.874Z,60.25
2023-04-23T04:25:05.288Z,60.47
2023-04-23T04:27:34.717Z,60.16
2023-04-23T04:30:02.133Z,60.09
2023-04-23T04:32:28.689Z,59.38
2023-04-23T04:34:55.344Z,59.66
2023-04-23T04:37:21.895Z,59.03
2023-04-23T04:39:48.387Z,59.20
2023-04-23T04:42:15.707Z,58.63
2023-04-23T04:44:43.670Z,58.86
2023-04-23T04:47:10.695Z,58.81
2023-04-23T04:49:38.197Z,58.71
2023-04-23T04:52:04.735Z,58.63
2023-04-23T04:54:31.203Z,58.42
2023-04-23T04:56:57.690Z,58.32
2023-04-23T04:59:24.298Z,58.34
2023-04-23T05:01:50.934Z,58.20
2023-04-23T05:04:17.742Z,58.19
2023-04-23T05:06:44.482Z,57.81
2023-04-23T05:09:11.482Z,57.79
2023-04-23T05:11:38.134Z,57.38
2023-04-23T05:14:04.844Z,57.94
2023-04-23T05:16:31.412Z,57.19
2023-04-23T05:18:58.113Z,57.06
2023-04-23T05:21:24.864Z,56.73
2023-04-23T05:23:51.392Z,56.91
2023-04-23T05:26:18.227Z,56.51
2023-04-23T05:28:44.799Z,56.15
2023-04-23T05:31:11.419Z,56.06
2023-04-23T05:33:49.162Z,55.91
2023-04-23T05:36:17.470Z,56.25
2023-04-23T05:38:44.025Z,56.36
2023-04-23T05:41:10.683Z,56.41
2023-04-23T05:43:37.354Z,56.32
2023-04-23T05:46:07.581Z,56.40
2023-04-23T05:48:34.678Z,56.97
2023-04-23T05:51:01.291Z,56.97
2023-04-23T05:53:28.522Z,57.83
2023-04-23T05:55:55.014Z,58.01
2023-04-23T05:58:21.714Z,58.23
2023-04-23T06:00:48.394Z,58.65
2023-04-23T06:03:15.024Z,57.88
2023-04-23T06:05:43.245Z,58.32
2023-04-23T06:08:09.906Z,57.00
2023-04-23T06:10:36.434Z,58.05
2023-04-23T06:13:03.140Z,57.63
2023-04-23T06:15:29.815Z,57.17
2023-04-23T06:17:56.504Z,58.22
2023-04-23T06:20:23.019Z,56.29
2023-04-23T06:22:49.520Z,55.70
2023-04-23T06:25:16.057Z,56.26
2023-04-23T06:27:42.703Z,56.32
2023-04-23T06:30:09.567Z,58.24
2023-04-23T06:32:36.302Z,56.66
2023-04-23T06:35:04.439Z,58.16
2023-04-23T06:37:31.867Z,56.98
2023-04-23T06:39:59.180Z,59.12
2023-04-23T06:42:25.777Z,59.91
2023-04-23T06:44:52.481Z,59.92
2023-04-23T06:47:19.530Z,58.81
2023-04-23T06:49:46.240Z,58.01
2023-04-23T06:52:12.884Z,57.17
2023-04-23T06:54:39.762Z,58.33
2023-04-23T06:57:06.656Z,57.94
2023-04-23T06:59:33.190Z,56.60
2023-04-23T07:01:59.746Z,56.75
2023-04-23T07:04:26.315Z,57.54
2023-04-23T07:06:52.828Z,57.23
2023-04-23T07:09:19.876Z,54.90
2023-04-23T07:11:46.472Z,54.01
2023-04-23T07:14:12.968Z,53.64
2023-04-23T07:16:39.582Z,53.46
2023-04-23T07:19:06.132Z,53.29
2023-04-23T07:21:33.054Z,52.80
2023-04-23T07:24:07.035Z,53.10
2023-04-23T07:26:34.816Z,52.58
2023-04-23T07:29:01.858Z,51.35
2023-04-23T07:31:31.349Z,51.25
2023-04-23T07:33:57.946Z,49.14
2023-04-23T07:36:24.631Z,51.19
2023-04-23T07:38:51.263Z,51.27
2023-04-23T07:41:18.307Z,51.31
2023-04-23T07:43:45.056Z,52.27
2023-04-23T07:46:11.871Z,51.83
2023-04-23T07:48:38.425Z,52.08
2023-04-23T07:51:06.411Z,51.09
2023-04-23T07:53:32.965Z,51.24
2023-04-23T07:56:00.489Z,52.80
2023-04-23T07:58:27.149Z,52.57
2023-04-23T08:00:53.731Z,53.12
2023-04-23T08:03:20.546Z,53.83
2023-04-23T08:05:47.494Z,53.37
2023-04-23T08:08:14.288Z,53.41
2023-04-23T08:10:40.921Z,51.94
2023-04-23T08:13:07.885Z,51.75
2023-04-23T08:15:34.396Z,52.81
2023-04-23T08:18:01.115Z,51.84
2023-04-23T08:20:27.647Z,51.60
2023-04-23T08:22:54.199Z,50.12
2023-04-23T08:25:21.062Z,49.46
2023-04-23T08:27:47.630Z,51.98
2023-04-23T08:30:14.286Z,50.30
2023-04-23T08:32:40.843Z,48.79
2023-04-23T08:35:08.305Z,48.64
2023-04-23T08:37:34.926Z,47.45
2023-04-23T08:40:01.695Z,48.16
2023-04-23T08:43:07.306Z,45.91
2023-04-23T08:45:34.705Z,44.33
2023-04-23T08:48:02.626Z,44.00
2023-04-23T08:50:29.920Z,42.73
2023-04-23T08:52:57.930Z,41.78
2023-04-23T08:55:24.830Z,42.40
2023-04-23T08:57:51.672Z,41.66
2023-04-23T09:00:19.870Z,40.08
2023-04-23T09:02:47.828Z,38.56
2023-04-23T09:05:15.268Z,38.12
2023-04-23T09:07:42.393Z,37.67
2023-04-23T09:10:11.576Z,38.89
2023-04-23T09:12:40.931Z,37.08
2023-04-23T09:15:11.850Z,37.88
2023-04-23T09:17:41.234Z,37.69
2023-04-23T09:20:11.278Z,34.50
2023-04-23T09:22:48.356Z,34.08
2023-04-23T09:25:23.221Z,34.58
2023-04-23T09:27:51.497Z,31.53
2023-04-23T09:30:19.073Z,29.93
2023-04-23T09:32:46.977Z,27.50
2023-04-23T09:35:19.588Z,22.81
2023-04-23T09:37:49.767Z,21.84
2023-04-23T09:40:18.594Z,22.02
2023-04-23T09:42:49.939Z,28.05
2023-04-23T09:45:17.033Z,28.85
2023-04-23T09:47:58.008Z,27.62
2023-04-23T09:50:38.994Z,23.22
2023-04-23T09:53:09.280Z,22.10
2023-04-23T09:55:39.827Z,22.96
2023-04-23T09:58:11.086Z,22.88
2023-04-23T10:00:39.021Z,22.11
2023-04-23T10:03:10.007Z,21.26
2023-04-23T10:08:13.802Z,26.00
2023-04-23T10:10:55.189Z,28.22
2023-04-23T10:13:26.922Z,23.74
2023-04-23T10:15:54.008Z,21.36
2023-04-23T10:18:20.780Z,20.92
2023-04-23T10:20:48.746Z,23.34
2023-04-23T10:23:16.147Z,27.11
2023-04-23T10:25:42.841Z,29.48
2023-04-23T10:28:11.766Z,32.89
2023-04-23T10:30:38.576Z,36.31
2023-04-23T10:33:10.807Z,36.36
2023-04-23T10:35:42.510Z,36.55
2023-04-23T10:38:09.074Z,36.61
2023-04-23T10:40:37.898Z,36.89
2023-04-23T10:43:04.429Z,35.08
2023-04-23T10:45:32.049Z,36.39
2023-04-23T10:47:58.742Z,36.22
2023-04-23T10:50:27.042Z,34.85
2023-04-23T10:52:54.601Z,33.60
2023-04-23T10:55:32.176Z,29.85
2023-04-23T10:58:07.346Z,30.11
2023-04-23T11:00:46.318Z,32.12
2023-04-23T11:03:32.357Z,30.12
2023-04-23T11:06:03.431Z,29.77
2023-04-23T11:08:34.041Z,29.66
2023-04-23T11:11:02.347Z,31.10
2023-04-23T11:13:30.298Z,30.02
2023-04-23T11:16:23.504Z,30.16
2023-04-23T11:19:16.153Z,30.77
2023-04-23T11:21:59.558Z,29.24
2023-04-23T11:24:30.732Z,27.47
2023-04-23T11:26:58.095Z,30.03
2023-04-23T11:29:25.955Z,29.26
2023-04-23T11:32:02.523Z,28.72
2023-04-23T11:34:30.276Z,29.85
2023-04-23T11:36:58.783Z,28.52
2023-04-23T11:39:25.837Z,28.48
2023-04-23T11:41:53.362Z,30.15
2023-04-23T11:44:21.447Z,32.42
2023-04-23T11:46:49.402Z,31.74
2023-04-23T11:49:17.241Z,31.77
2023-04-23T11:51:44.762Z,31.52
2023-04-23T11:54:12.149Z,30.72
2023-04-23T11:56:38.935Z,29.63
2023-04-23T11:59:06.138Z,29.91
2023-04-23T12:01:53.258Z,30.73
2023-04-23T12:04:21.758Z,31.66
2023-04-23T12:06:49.544Z,31.48
2023-04-23T12:09:18.233Z,31.30
2023-04-23T12:11:45.716Z,30.24
2023-04-23T12:14:14.159Z,30.13
2023-04-23T12:16:52.178Z,29.40
2023-04-23T12:19:20.928Z,31.30
2023-04-23T12:21:58.434Z,32.45
2023-04-23T12:24:26.971Z,32.30
2023-04-23T12:26:55.904Z,32.83
2023-04-23T12:29:23.329Z,32.19
2023-04-23T12:31:52.260Z,32.14
2023-04-23T12:34:20.530Z,33.16
2023-04-23T12:36:52.161Z,34.27
2023-04-23T12:39:34.542Z,33.52
2023-04-23T12:42:06.585Z,34.14
2023-04-23T12:44:37.572Z,34.32
2023-04-23T12:47:07.343Z,33.83
2023-04-23T12:49:36.033Z,35.39
2023-04-23T12:52:04.055Z,33.88
2023-04-23T12:54:32.653Z,33.60
2023-04-23T12:57:01.957Z,33.22
2023-04-23T12:59:29.292Z,34.51
2023-04-23T13:01:56.048Z,34.00
2023-04-23T13:04:22.614Z,33.78
2023-04-23T13:06:49.367Z,34.24
2023-04-23T13:09:15.870Z,34.79
2023-04-23T13:11:42.535Z,34.66
2023-04-23T13:14:09.355Z,34.46
2023-04-23T13:16:36.540Z,33.23
2023-04-23T13:19:03.127Z,33.04
2023-04-23T13:21:29.638Z,31.78
2023-04-23T13:23:56.975Z,31.67
2023-04-23T13:26:23.562Z,32.13
2023-04-23T13:28:50.370Z,32.16
2023-04-23T13:31:16.959Z,30.61
2023-04-23T13:33:43.479Z,30.70
2023-04-23T13:36:10.177Z,30.59
2023-04-23T13:38:36.990Z,29.95
2023-04-23T13:41:03.560Z,29.74
2023-04-23T13:43:30.606Z,29.22
2023-04-23T13:45:57.296Z,32.63
2023-04-23T13:48:28.581Z,32.28
2023-04-23T13:50:55.834Z,32.78
2023-04-23T13:53:22.825Z,33.48
2023-04-23T13:55:49.660Z,34.71
2023-04-23T13:58:16.283Z,33.76
2023-04-23T14:00:43.361Z,34.00
2023-04-23T14:03:10.113Z,33.96
2023-04-23T14:05:36.972Z,34.00
2023-04-23T14:08:03.605Z,34.22
2023-04-23T14:10:30.100Z,33.68
2023-04-23T14:12:56.737Z,30.72
2023-04-23T14:15:23.394Z,31.08
2023-04-23T14:17:49.967Z,31.10
2023-04-23T14:20:16.670Z,29.81
2023-04-23T14:22:43.554Z,29.18
2023-04-23T14:25:14.815Z,29.01
2023-04-23T14:27:46.602Z,29.84
2023-04-23T14:30:19.122Z,30.89
2023-04-23T14:32:49.433Z,30.44
2023-04-23T14:35:17.398Z,29.75
2023-04-23T14:37:45.438Z,28.77
2023-04-23T14:40:19.713Z,28.71
2023-04-23T14:42:48.086Z,27.77
2023-04-23T14:45:18.936Z,28.66
2023-04-23T14:47:50.774Z,28.39
2023-04-23T14:50:17.436Z,28.57
2023-04-23T14:52:48.277Z,28.29
2023-04-23T14:55:15.430Z,29.36
2023-04-23T14:57:42.886Z,29.79
2023-04-23T15:00:13.088Z,28.46
2023-04-23T15:02:42.945Z,29.86
2023-04-23T15:05:09.787Z,29.81
2023-04-23T15:07:42.497Z,30.43
2023-04-23T15:10:11.249Z,29.44
2023-04-23T15:12:41.121Z,30.18
2023-04-23T15:15:47.243Z,30.93
2023-04-23T15:18:14.730Z,31.56
2023-04-23T15:20:43.837Z,30.41
2023-04-23T15:23:10.640Z,31.34
2023-04-23T15:25:39.143Z,30.37
2023-04-23T15:28:07.060Z,30.68
2023-04-23T15:30:33.977Z,31.87
2023-04-23T15:33:00.883Z,32.28
2023-04-23T15:35:27.984Z,31.85
2023-04-23T15:37:54.760Z,31.49
2023-04-23T15:40:21.801Z,31.21
2023-04-23T15:42:49.937Z,32.32
2023-04-23T15:45:17.074Z,31.77
2023-04-23T15:47:43.975Z,32.30
2023-04-23T15:50:11.682Z,32.27
2023-04-23T15:52:38.857Z,31.98
2023-04-23T15:55:06.379Z,31.95
2023-04-23T15:57:33.004Z,32.57
2023-04-23T15:59:59.805Z,32.72
2023-04-23T16:02:27.261Z,32.88
2023-04-23T16:04:53.947Z,32.36
2023-04-23T16:07:20.668Z,33.07
2023-04-23T16:09:47.371Z,34.28
2023-04-23T16:12:13.885Z,34.77
2023-04-23T16:14:42.574Z,33.67
2023-04-23T16:17:09.221Z,35.39
2023-04-23T16:19:35.999Z,32.79
2023-04-23T16:22:02.511Z,36.12
2023-04-23T16:24:29.811Z,36.41
2023-04-23T16:26:56.416Z,36.69
2023-04-23T16:29:23.375Z,38.04
2023-04-23T16:31:50.139Z,36.94
2023-04-23T16:34:17.222Z,35.69
2023-04-23T16:36:43.776Z,36.12
2023-04-23T16:39:11.206Z,36.65
2023-04-23T16:41:38.234Z,36.24
2023-04-23T16:44:04.915Z,36.17
2023-04-23T16:46:32.060Z,36.83
2023-04-23T16:48:59.820Z,34.79
2023-04-23T16:51:26.961Z,36.96
2023-04-23T16:53:54.028Z,34.44
2023-04-23T16:56:21.105Z,35.50
2023-04-23T16:58:47.965Z,34.58
2023-04-23T17:01:15.592Z,36.58
2023-04-23T17:03:42.708Z,35.86
2023-04-23T17:06:25.292Z,37.48
2023-04-23T17:08:51.796Z,38.71
2023-04-23T17:11:18.372Z,39.45
2023-04-23T17:13:44.956Z,39.54
2023-04-23T17:16:14.587Z,39.00
2023-04-23T17:18:41.089Z,39.28
2023-04-23T17:21:07.961Z,38.63
2023-04-23T17:23:34.556Z,37.66
2023-04-23T17:26:01.118Z,38.92
2023-04-23T17:28:27.641Z,38.79
2023-04-23T17:30:55.806Z,39.48
2023-04-23T17:33:23.039Z,39.04
2023-04-23T17:35:53.556Z,37.93
2023-04-23T17:38:20.734Z,38.33
2023-04-23T17:40:48.036Z,39.90
2023-04-23T17:43:14.552Z,42.55
2023-04-23T17:45:41.521Z,42.28
2023-04-23T17:48:08.351Z,43.80
2023-04-23T17:50:34.993Z,47.35
2023-04-23T17:53:01.460Z,50.98
2023-04-23T17:55:28.072Z,55.58
2023-04-23T17:57:54.530Z,60.55
2023-04-23T18:00:21.278Z,63.54
2023-04-23T18:02:47.998Z,66.09
2023-04-23T18:05:16.842Z,67.22
2023-04-23T18:07:44.614Z,68.91
2023-04-23T18:10:12.393Z,70.91
2023-04-23T18:12:39.378Z,73.59
2023-04-23T18:15:06.442Z,73.72
2023-04-23T18:17:32.933Z,74.64
2023-04-23T18:19:59.401Z,74.22
2023-04-23T18:22:25.879Z,73.71
2023-04-23T18:24:52.525Z,74.14
2023-04-23T18:27:19.562Z,74.25
2023-04-23T18:29:46.357Z,73.41
2023-04-23T18:32:20.935Z,74.74
2023-04-23T18:34:54.463Z,73.04
2023-04-23T18:37:39.033Z,72.75
2023-04-23T18:40:06.252Z,73.36
2023-04-23T18:42:33.283Z,72.65
2023-04-23T18:44:59.878Z,70.93
2023-04-23T18:47:32.015Z,70.22
2023-04-23T18:50:03.276Z,70.52
2023-04-23T18:52:29.761Z,70.31
2023-04-23T18:54:56.240Z,70.66
2023-04-23T18:57:22.948Z,69.48
2023-04-23T18:59:49.595Z,69.52
2023-04-23T19:02:24.707Z,68.59
2023-04-23T19:05:00.812Z,68.42
2023-04-23T19:07:27.344Z,69.08
2023-04-23T19:09:53.881Z,68.80
2023-04-23T19:12:20.477Z,69.97
2023-04-23T19:14:46.977Z,69.73
2023-04-23T19:17:13.521Z,69.76
2023-04-23T19:19:40.175Z,69.64
2023-04-23T19:22:06.906Z,68.74
2023-04-23T19:24:34.408Z,67.87
2023-04-23T19:27:01.363Z,67.95
2023-04-23T19:29:27.886Z,67.37
2023-04-23T19:31:54.880Z,66.91
2023-04-23T19:34:21.779Z,67.50
2023-04-23T19:36:48.757Z,66.82
2023-04-23T19:39:15.328Z,67.01
2023-04-23T19:41:41.813Z,66.40
2023-04-23T19:44:08.352Z,65.66
2023-04-23T19:46:37.539Z,66.63
2023-04-23T19:49:04.050Z,68.17
2023-04-23T19:51:32.932Z,67.11
2023-04-23T19:53:59.482Z,68.41
2023-04-23T19:56:27.048Z,66.78
2023-04-23T19:58:53.741Z,67.04
2023-04-23T20:01:20.742Z,67.44
2023-04-23T20:03:51.966Z,68.06
2023-04-23T20:06:19.671Z,67.91
2023-04-23T20:09:04.529Z,69.46
2023-04-23T20:11:31.267Z,69.32
2023-04-23T20:13:57.828Z,69.69
2023-04-23T20:16:24.426Z,68.35
2023-04-23T20:18:51.068Z,69.01
2023-04-23T20:21:17.739Z,69.29
2023-04-23T20:23:44.280Z,69.19
2023-04-23T20:26:11.051Z,70.17
2023-04-23T20:28:37.645Z,69.04
2023-04-23T20:31:04.559Z,69.08
2023-04-23T20:33:31.099Z,69.31
2023-04-23T20:35:58.775Z,68.51
2023-04-23T20:38:30.728Z,66.67
2023-04-23T20:41:02.608Z,67.66
2023-04-23T20:43:29.643Z,67.34
2023-04-23T20:45:56.772Z,68.53
2023-04-23T20:48:25.796Z,68.24
2023-04-23T20:50:52.570Z,68.32
2023-04-23T20:53:19.138Z,67.78
2023-04-23T20:55:45.761Z,67.47
2023-04-23T20:58:12.331Z,67.03
2023-04-23T21:00:38.831Z,66.19
2023-04-23T21:03:06.083Z,67.99
2023-04-23T21:05:32.739Z,66.92
2023-04-23T21:07:59.267Z,64.76
2023-04-23T21:10:25.778Z,65.68
2023-04-23T21:12:52.583Z,65.51
2023-04-23T21:15:19.099Z,63.96
2023-04-23T21:17:46.012Z,64.24
2023-04-23T21:20:12.665Z,64.03
2023-04-23T21:22:39.212Z,64.53
2023-04-23T21:25:06.207Z,65.19
2023-04-23T21:27:32.930Z,63.98
2023-04-23T21:30:05.818Z,63.82
2023-04-23T21:32:32.685Z,63.53
2023-04-23T21:34:59.175Z,63.42
2023-04-23T21:37:25.656Z,62.92
2023-04-23T21:39:52.205Z,62.14
2023-04-23T21:42:18.802Z,62.32
2023-04-23T21:44:45.301Z,62.41
2023-04-23T21:47:11.922Z,62.28
2023-04-23T21:49:38.546Z,61.81
2023-04-23T21:52:05.021Z,62.50
2023-04-23T21:54:31.530Z,62.21
2023-04-23T21:56:58.053Z,61.00
2023-04-23T21:59:24.872Z,60.37
2023-04-23T22:01:51.469Z,60.43
2023-04-23T22:04:18.497Z,60.03
2023-04-23T22:06:47.000Z,58.44
2023-04-23T22:09:14.119Z,57.25
2023-04-23T22:11:44.196Z,57.27
2023-04-23T22:14:15.879Z,58.73
2023-04-23T22:16:42.397Z,57.13
2023-04-23T22:19:10.198Z,55.92
2023-04-23T22:21:36.667Z,55.93
2023-04-23T22:24:03.725Z,55.72
2023-04-23T22:26:30.276Z,55.83
2023-04-23T22:28:56.837Z,55.24
2023-04-23T22:31:23.350Z,55.42
2023-04-23T22:33:49.901Z,54.29
2023-04-23T22:36:16.981Z,54.01
2023-04-23T22:38:43.458Z,53.84
2023-04-23T22:41:09.979Z,54.13
2023-04-23T22:43:36.494Z,54.02
2023-04-23T22:46:03.104Z,54.41
2023-04-23T22:48:30.783Z,53.86
2023-04-23T22:50:57.614Z,53.41
2023-04-23T22:53:24.073Z,52.91
2023-04-23T22:55:51.445Z,52.81
2023-04-23T22:58:17.975Z,53.42
2023-04-23T23:00:44.544Z,52.71
2023-04-23T23:03:11.882Z,53.35
2023-04-23T23:05:38.676Z,54.51
2023-04-23T23:08:05.244Z,54.02
2023-04-23T23:10:32.184Z,52.74
2023-04-23T23:12:58.720Z,54.72
2023-04-23T23:15:25.559Z,53.98
2023-04-23T23:17:52.103Z,54.68
2023-04-23T23:20:19.704Z,55.15
2023-04-23T23:22:46.479Z,54.65
2023-04-23T23:25:13.180Z,55.87
2023-04-23T23:27:39.675Z,54.75
2023-04-23T23:30:07.709Z,54.67
2023-04-23T23:32:34.240Z,53.68
2023-04-23T23:35:00.820Z,54.27
2023-04-23T23:37:27.713Z,54.47
2023-04-23T23:39:54.172Z,54.29
2023-04-23T23:42:21.179Z,54.08
2023-04-23T23:44:47.712Z,54.71
2023-04-23T23:47:14.297Z,55.58
2023-04-23T23:49:41.888Z,55.45
2023-04-23T23:52:08.734Z,55.05
2023-04-23T23:54:35.904Z,54.98
2023-04-23T23:57:02.463Z,55.76
2023-04-23T23:59:29.155Z,55.62
